sensor_id;sensor_type;location;lat;lon;timestamp;noise_LAeq;noise_LA_min;noise_LA_max;noise_LA01;noise_LA95
45478;Laerm;31227;47.986;11.868;2022-07-23T00:01:57;44.36;40.80;55.69;;
45478;Laerm;31227;47.986;11.868;2022-07-23T00:04:23;43.87;41.68;49.32;;
45478;Laerm;31227;47.986;11.868;2022-07-23T00:06:48;54.28;41.61;89.89;;
45478;Laerm;31227;47.986;11.868;2022-07-23T00:09:13;47.00;41.68;72.54;;
45478;Laerm;31227;47.986;11.868;2022-07-23T00:11:38;49.10;38.52;83.93;;
45478;Laerm;31227;47.986;11.868;2022-07-23T00:14:03;42.96;39.46;52.27;;
45478;Laerm;31227;47.986;11.868;2022-07-23T00:16:29;42.02;39.08;55.14;;
45478;Laerm;31227;47.986;11.868;2022-07-23T00:18:54;50.66;39.08;85.31;;
45478;Laerm;31227;47.986;11.868;2022-07-23T00:21:19;41.97;38.37;49.35;;
45478;Laerm;31227;47.986;11.868;2022-07-23T00:23:45;42.11;38.21;54.16;;
45478;Laerm;31227;47.986;11.868;2022-07-23T00:26:10;41.24;37.70;51.32;;
45478;Laerm;31227;47.986;11.868;2022-07-23T00:28:35;41.32;37.70;49.71;;
45478;Laerm;31227;47.986;11.868;2022-07-23T00:31:01;48.71;37.70;82.21;;
45478;Laerm;31227;47.986;11.868;2022-07-23T00:33:26;44.51;39.08;75.64;;
45478;Laerm;31227;47.986;11.868;2022-07-23T00:35:51;56.65;40.62;91.73;;
45478;Laerm;31227;47.986;11.868;2022-07-23T00:38:17;50.51;41.96;83.64;;
45478;Laerm;31227;47.986;11.868;2022-07-23T00:40:42;49.36;39.99;79.92;;
45478;Laerm;31227;47.986;11.868;2022-07-23T00:43:07;46.96;41.06;75.57;;
45478;Laerm;31227;47.986;11.868;2022-07-23T00:45:33;45.51;40.03;73.42;;
45478;Laerm;31227;47.986;11.868;2022-07-23T00:47:58;45.08;39.92;73.65;;
45478;Laerm;31227;47.986;11.868;2022-07-23T00:50:24;46.27;39.46;69.82;;
45478;Laerm;31227;47.986;11.868;2022-07-23T00:52:49;43.75;38.95;66.27;;
45478;Laerm;31227;47.986;11.868;2022-07-23T00:55:15;45.67;38.95;77.02;;
45478;Laerm;31227;47.986;11.868;2022-07-23T00:57:41;46.31;36.91;75.57;;
45478;Laerm;31227;47.986;11.868;2022-07-23T01:00:08;44.57;37.70;71.64;;
45478;Laerm;31227;47.986;11.868;2022-07-23T01:02:34;56.06;38.52;91.60;;
45478;Laerm;31227;47.986;11.868;2022-07-23T01:04:59;44.05;38.95;62.92;;
45478;Laerm;31227;47.986;11.868;2022-07-23T01:07:24;49.09;38.67;84.07;;
45478;Laerm;31227;47.986;11.868;2022-07-23T01:09:50;43.60;38.52;52.70;;
45478;Laerm;31227;47.986;11.868;2022-07-23T01:12:16;42.17;38.81;48.83;;
45478;Laerm;31227;47.986;11.868;2022-07-23T01:14:41;42.54;38.21;67.06;;
45478;Laerm;31227;47.986;11.868;2022-07-23T01:17:06;43.86;38.21;58.18;;
45478;Laerm;31227;47.986;11.868;2022-07-23T01:19:32;41.23;38.21;50.22;;
45478;Laerm;31227;47.986;11.868;2022-07-23T01:21:57;41.07;38.67;42.82;;
45478;Laerm;31227;47.986;11.868;2022-07-23T01:24:23;40.96;38.37;42.98;;
45478;Laerm;31227;47.986;11.868;2022-07-23T01:26:49;40.94;38.21;43.44;;
45478;Laerm;31227;47.986;11.868;2022-07-23T01:29:15;42.66;38.52;53.69;;
45478;Laerm;31227;47.986;11.868;2022-07-23T01:31:41;41.60;37.52;52.46;;
45478;Laerm;31227;47.986;11.868;2022-07-23T01:34:06;41.84;37.32;52.81;;
45478;Laerm;31227;47.986;11.868;2022-07-23T01:36:32;43.75;36.91;58.46;;
45478;Laerm;31227;47.986;11.868;2022-07-23T01:38:57;40.91;37.12;51.37;;
45478;Laerm;31227;47.986;11.868;2022-07-23T01:41:23;40.34;35.94;54.29;;
45478;Laerm;31227;47.986;11.868;2022-07-23T01:43:49;41.67;36.20;62.34;;
45478;Laerm;31227;47.986;11.868;2022-07-23T01:46:14;45.06;36.69;63.16;;
45478;Laerm;31227;47.986;11.868;2022-07-23T01:48:39;44.02;35.94;65.63;;
45478;Laerm;31227;47.986;11.868;2022-07-23T01:51:05;47.90;36.45;74.31;;
45478;Laerm;31227;47.986;11.868;2022-07-23T01:53:30;42.48;35.94;66.17;;
45478;Laerm;31227;47.986;11.868;2022-07-23T01:55:59;40.34;35.66;54.49;;
45478;Laerm;31227;47.986;11.868;2022-07-23T01:58:24;39.95;35.66;59.31;;
45478;Laerm;31227;47.986;11.868;2022-07-23T02:00:50;46.10;35.04;68.05;;
45478;Laerm;31227;47.986;11.868;2022-07-23T02:03:15;40.24;33.90;66.70;;
45478;Laerm;31227;47.986;11.868;2022-07-23T02:05:40;39.48;35.04;54.39;;
45478;Laerm;31227;47.986;11.868;2022-07-23T02:08:05;51.36;34.69;79.02;;
45478;Laerm;31227;47.986;11.868;2022-07-23T02:10:31;41.75;35.36;67.88;;
45478;Laerm;31227;47.986;11.868;2022-07-23T02:12:56;39.03;35.04;54.67;;
45478;Laerm;31227;47.986;11.868;2022-07-23T02:15:21;40.92;34.69;60.37;;
45478;Laerm;31227;47.986;11.868;2022-07-23T02:17:46;40.15;34.31;58.48;;
45478;Laerm;31227;47.986;11.868;2022-07-23T02:20:12;39.39;34.31;50.23;;
45478;Laerm;31227;47.986;11.868;2022-07-23T02:22:37;38.56;32.35;45.89;;
45478;Laerm;31227;47.986;11.868;2022-07-23T02:25:04;38.99;33.90;49.39;;
45478;Laerm;31227;47.986;11.868;2022-07-23T02:27:29;40.10;34.31;52.40;;
45478;Laerm;31227;47.986;11.868;2022-07-23T02:29:54;40.16;34.31;60.81;;
45478;Laerm;31227;47.986;11.868;2022-07-23T02:32:20;41.48;34.69;58.52;;
45478;Laerm;31227;47.986;11.868;2022-07-23T02:34:46;40.02;34.69;48.95;;
45478;Laerm;31227;47.986;11.868;2022-07-23T02:37:11;38.92;34.31;46.66;;
45478;Laerm;31227;47.986;11.868;2022-07-23T02:39:36;38.98;34.31;50.04;;
45478;Laerm;31227;47.986;11.868;2022-07-23T02:42:01;38.23;34.31;43.34;;
45478;Laerm;31227;47.986;11.868;2022-07-23T02:44:27;43.05;33.90;59.76;;
45478;Laerm;31227;47.986;11.868;2022-07-23T02:46:52;40.22;34.69;54.98;;
45478;Laerm;31227;47.986;11.868;2022-07-23T02:49:17;45.77;33.90;65.12;;
45478;Laerm;31227;47.986;11.868;2022-07-23T02:51:42;43.05;34.69;57.35;;
45478;Laerm;31227;47.986;11.868;2022-07-23T02:54:07;43.82;34.31;69.42;;
45478;Laerm;31227;47.986;11.868;2022-07-23T02:56:33;40.83;34.31;52.95;;
45478;Laerm;31227;47.986;11.868;2022-07-23T02:58:58;39.32;34.69;50.13;;
45478;Laerm;31227;47.986;11.868;2022-07-23T03:01:23;42.83;35.04;57.25;;
45478;Laerm;31227;47.986;11.868;2022-07-23T03:03:48;38.22;32.93;40.80;;
45478;Laerm;31227;47.986;11.868;2022-07-23T03:06:13;39.02;34.69;49.11;;
45478;Laerm;31227;47.986;11.868;2022-07-23T03:08:39;39.08;33.90;49.27;;
45478;Laerm;31227;47.986;11.868;2022-07-23T03:11:04;41.31;34.69;57.41;;
45478;Laerm;31227;47.986;11.868;2022-07-23T03:13:31;38.87;33.90;49.07;;
45478;Laerm;31227;47.986;11.868;2022-07-23T03:15:57;38.84;33.44;49.10;;
45478;Laerm;31227;47.986;11.868;2022-07-23T03:18:22;42.20;35.01;53.81;;
45478;Laerm;31227;47.986;11.868;2022-07-23T03:20:47;40.65;34.69;52.98;;
45478;Laerm;31227;47.986;11.868;2022-07-23T03:23:12;40.27;33.90;51.95;;
45478;Laerm;31227;47.986;11.868;2022-07-23T03:25:37;43.51;35.04;56.05;;
45478;Laerm;31227;47.986;11.868;2022-07-23T03:28:03;40.34;34.31;51.49;;
45478;Laerm;31227;47.986;11.868;2022-07-23T03:30:28;38.66;33.90;46.35;;
45478;Laerm;31227;47.986;11.868;2022-07-23T03:32:53;39.35;34.69;51.69;;
45478;Laerm;31227;47.986;11.868;2022-07-23T03:35:18;39.08;34.69;48.91;;
45478;Laerm;31227;47.986;11.868;2022-07-23T03:37:44;44.68;34.69;63.44;;
45478;Laerm;31227;47.986;11.868;2022-07-23T03:40:09;41.41;34.69;53.47;;
45478;Laerm;31227;47.986;11.868;2022-07-23T03:42:34;47.20;34.69;66.33;;
45478;Laerm;31227;47.986;11.868;2022-07-23T03:45:02;41.50;33.44;53.45;;
45478;Laerm;31227;47.986;11.868;2022-07-23T03:47:27;41.62;33.90;52.80;;
45478;Laerm;31227;47.986;11.868;2022-07-23T03:49:52;41.53;34.69;58.19;;
45478;Laerm;31227;47.986;11.868;2022-07-23T03:52:17;41.14;35.04;53.28;;
45478;Laerm;31227;47.986;11.868;2022-07-23T03:54:43;44.06;33.90;63.39;;
45478;Laerm;31227;47.986;11.868;2022-07-23T03:57:08;39.94;33.44;52.04;;
45478;Laerm;31227;47.986;11.868;2022-07-23T03:59:33;42.76;34.31;56.69;;
45478;Laerm;31227;47.986;11.868;2022-07-23T04:01:58;40.46;34.69;50.87;;
45478;Laerm;31227;47.986;11.868;2022-07-23T04:04:23;39.38;34.31;52.04;;
45478;Laerm;31227;47.986;11.868;2022-07-23T04:06:49;44.83;35.04;61.37;;
45478;Laerm;31227;47.986;11.868;2022-07-23T04:09:14;42.88;35.36;54.70;;
45478;Laerm;31227;47.986;11.868;2022-07-23T04:11:39;43.07;34.31;58.83;;
45478;Laerm;31227;47.986;11.868;2022-07-23T04:14:04;39.90;34.69;48.57;;
45478;Laerm;31227;47.986;11.868;2022-07-23T04:16:30;40.88;35.04;54.70;;
45478;Laerm;31227;47.986;11.868;2022-07-23T04:18:56;41.24;34.69;53.49;;
45478;Laerm;31227;47.986;11.868;2022-07-23T04:21:21;40.57;35.04;51.77;;
45478;Laerm;31227;47.986;11.868;2022-07-23T04:23:47;46.49;36.91;58.03;;
45478;Laerm;31227;47.986;11.868;2022-07-23T04:26:12;43.77;35.94;59.82;;
45478;Laerm;31227;47.986;11.868;2022-07-23T04:28:38;45.03;36.45;62.88;;
45478;Laerm;31227;47.986;11.868;2022-07-23T04:31:03;42.23;35.66;51.37;;
45478;Laerm;31227;47.986;11.868;2022-07-23T04:33:28;45.12;35.36;60.36;;
45478;Laerm;31227;47.986;11.868;2022-07-23T04:35:53;41.31;35.66;51.50;;
45478;Laerm;31227;47.986;11.868;2022-07-23T04:38:19;42.63;35.04;54.30;;
45478;Laerm;31227;47.986;11.868;2022-07-23T04:40:44;45.73;35.36;67.85;;
45478;Laerm;31227;47.986;11.868;2022-07-23T04:43:09;43.37;35.36;57.90;;
45478;Laerm;31227;47.986;11.868;2022-07-23T04:45:34;41.65;35.04;52.15;;
45478;Laerm;31227;47.986;11.868;2022-07-23T04:47:59;43.52;34.31;56.28;;
45478;Laerm;31227;47.986;11.868;2022-07-23T04:50:26;45.93;36.20;58.54;;
45478;Laerm;31227;47.986;11.868;2022-07-23T04:52:51;43.06;36.20;53.21;;
45478;Laerm;31227;47.986;11.868;2022-07-23T04:55:16;44.36;35.36;52.55;;
45478;Laerm;31227;47.986;11.868;2022-07-23T04:57:42;44.16;35.94;57.65;;
45478;Laerm;31227;47.986;11.868;2022-07-23T05:00:07;43.00;35.36;53.92;;
45478;Laerm;31227;47.986;11.868;2022-07-23T05:02:32;40.97;34.69;50.90;;
45478;Laerm;31227;47.986;11.868;2022-07-23T05:04:58;42.21;35.66;51.56;;
45478;Laerm;31227;47.986;11.868;2022-07-23T05:07:23;45.26;36.69;55.40;;
45478;Laerm;31227;47.986;11.868;2022-07-23T05:09:49;43.27;35.94;56.46;;
45478;Laerm;31227;47.986;11.868;2022-07-23T05:12:14;44.35;36.45;54.23;;
45478;Laerm;31227;47.986;11.868;2022-07-23T05:14:39;42.45;35.66;53.67;;
45478;Laerm;31227;47.986;11.868;2022-07-23T05:17:04;43.57;36.20;59.44;;
45478;Laerm;31227;47.986;11.868;2022-07-23T05:19:30;45.24;36.20;58.70;;
45478;Laerm;31227;47.986;11.868;2022-07-23T05:21:55;43.80;35.04;55.20;;
45478;Laerm;31227;47.986;11.868;2022-07-23T05:24:20;42.07;35.94;53.13;;
45478;Laerm;31227;47.986;11.868;2022-07-23T05:26:45;43.76;36.91;55.03;;
45478;Laerm;31227;47.986;11.868;2022-07-23T05:29:10;46.61;36.69;63.23;;
45478;Laerm;31227;47.986;11.868;2022-07-23T05:31:36;47.43;36.45;65.44;;
45478;Laerm;31227;47.986;11.868;2022-07-23T05:34:01;42.99;35.04;54.90;;
45478;Laerm;31227;47.986;11.868;2022-07-23T05:36:26;42.86;36.20;54.71;;
45478;Laerm;31227;47.986;11.868;2022-07-23T05:38:51;43.15;35.66;54.81;;
45478;Laerm;31227;47.986;11.868;2022-07-23T05:41:17;43.74;35.94;54.93;;
45478;Laerm;31227;47.986;11.868;2022-07-23T05:43:42;44.95;36.45;58.93;;
45478;Laerm;31227;47.986;11.868;2022-07-23T05:46:07;49.85;37.52;64.25;;
45478;Laerm;31227;47.986;11.868;2022-07-23T05:48:32;44.54;35.66;54.80;;
45478;Laerm;31227;47.986;11.868;2022-07-23T05:50:57;42.86;36.20;52.85;;
45478;Laerm;31227;47.986;11.868;2022-07-23T05:53:23;44.71;35.66;54.97;;
45478;Laerm;31227;47.986;11.868;2022-07-23T05:55:48;43.92;37.12;53.62;;
45478;Laerm;31227;47.986;11.868;2022-07-23T05:58:13;44.55;36.20;56.20;;
45478;Laerm;31227;47.986;11.868;2022-07-23T06:00:39;46.37;37.52;62.54;;
45478;Laerm;31227;47.986;11.868;2022-07-23T06:03:04;42.97;35.04;53.83;;
45478;Laerm;31227;47.986;11.868;2022-07-23T06:05:29;46.74;36.20;63.87;;
45478;Laerm;31227;47.986;11.868;2022-07-23T06:07:55;45.89;35.66;57.64;;
45478;Laerm;31227;47.986;11.868;2022-07-23T06:10:20;46.74;35.36;63.54;;
45478;Laerm;31227;47.986;11.868;2022-07-23T06:12:45;46.22;34.69;61.31;;
45478;Laerm;31227;47.986;11.868;2022-07-23T06:15:10;43.89;36.20;54.71;;
45478;Laerm;31227;47.986;11.868;2022-07-23T06:17:36;45.43;37.12;62.08;;
45478;Laerm;31227;47.986;11.868;2022-07-23T06:20:04;45.19;36.91;56.82;;
45478;Laerm;31227;47.986;11.868;2022-07-23T06:22:29;47.12;36.69;60.40;;
45478;Laerm;31227;47.986;11.868;2022-07-23T06:24:54;43.48;35.36;54.50;;
45478;Laerm;31227;47.986;11.868;2022-07-23T06:27:20;45.00;36.20;54.31;;
45478;Laerm;31227;47.986;11.868;2022-07-23T06:29:45;44.79;35.04;54.95;;
45478;Laerm;31227;47.986;11.868;2022-07-23T06:32:10;44.33;36.45;55.63;;
45478;Laerm;31227;47.986;11.868;2022-07-23T06:34:35;45.15;36.56;61.17;;
45478;Laerm;31227;47.986;11.868;2022-07-23T06:37:01;44.78;35.94;54.60;;
45478;Laerm;31227;47.986;11.868;2022-07-23T06:39:26;45.91;37.32;59.31;;
45478;Laerm;31227;47.986;11.868;2022-07-23T06:41:51;52.15;37.32;75.76;;
45478;Laerm;31227;47.986;11.868;2022-07-23T06:44:17;46.74;36.45;57.96;;
45478;Laerm;31227;47.986;11.868;2022-07-23T06:46:42;45.07;36.45;56.83;;
45478;Laerm;31227;47.986;11.868;2022-07-23T06:49:07;46.59;37.12;60.32;;
45478;Laerm;31227;47.986;11.868;2022-07-23T06:51:33;45.90;37.12;58.17;;
45478;Laerm;31227;47.986;11.868;2022-07-23T06:53:58;45.02;36.45;61.70;;
45478;Laerm;31227;47.986;11.868;2022-07-23T06:56:23;44.81;36.91;57.87;;
45478;Laerm;31227;47.986;11.868;2022-07-23T06:58:49;45.29;36.91;53.92;;
45478;Laerm;31227;47.986;11.868;2022-07-23T07:01:14;47.85;36.45;60.27;;
45478;Laerm;31227;47.986;11.868;2022-07-23T07:03:39;45.17;36.20;54.06;;
45478;Laerm;31227;47.986;11.868;2022-07-23T07:06:04;45.37;37.12;56.37;;
45478;Laerm;31227;47.986;11.868;2022-07-23T07:08:29;43.97;35.94;51.62;;
45478;Laerm;31227;47.986;11.868;2022-07-23T07:10:55;45.81;38.99;54.70;;
45478;Laerm;31227;47.986;11.868;2022-07-23T07:13:20;44.52;36.45;51.77;;
45478;Laerm;31227;47.986;11.868;2022-07-23T07:15:45;45.16;35.66;54.06;;
45478;Laerm;31227;47.986;11.868;2022-07-23T07:18:10;45.17;36.20;55.69;;
45478;Laerm;31227;47.986;11.868;2022-07-23T07:20:36;46.06;37.52;55.15;;
45478;Laerm;31227;47.986;11.868;2022-07-23T07:23:01;48.00;38.05;63.16;;
45478;Laerm;31227;47.986;11.868;2022-07-23T07:25:26;45.77;35.66;53.85;;
45478;Laerm;31227;47.986;11.868;2022-07-23T07:27:51;45.34;36.91;56.89;;
45478;Laerm;31227;47.986;11.868;2022-07-23T07:30:16;45.72;37.12;53.16;;
45478;Laerm;31227;47.986;11.868;2022-07-23T07:32:42;49.13;39.21;64.49;;
45478;Laerm;31227;47.986;11.868;2022-07-23T07:35:07;45.87;36.45;57.59;;
45478;Laerm;31227;47.986;11.868;2022-07-23T07:37:33;46.66;37.88;56.89;;
45478;Laerm;31227;47.986;11.868;2022-07-23T07:39:58;46.14;37.52;54.16;;
45478;Laerm;31227;47.986;11.868;2022-07-23T07:42:23;46.19;36.91;61.27;;
45478;Laerm;31227;47.986;11.868;2022-07-23T07:44:48;45.20;36.20;55.41;;
45478;Laerm;31227;47.986;11.868;2022-07-23T07:47:14;45.85;36.45;55.35;;
45478;Laerm;31227;47.986;11.868;2022-07-23T07:49:40;46.52;37.32;60.50;;
45478;Laerm;31227;47.986;11.868;2022-07-23T07:52:06;46.22;38.52;53.68;;
45478;Laerm;31227;47.986;11.868;2022-07-23T07:54:31;44.55;37.32;52.59;;
45478;Laerm;31227;47.986;11.868;2022-07-23T07:56:57;44.98;35.94;53.64;;
45478;Laerm;31227;47.986;11.868;2022-07-23T07:59:22;45.80;37.12;57.30;;
45478;Laerm;31227;47.986;11.868;2022-07-23T08:01:47;45.83;37.12;56.14;;
45478;Laerm;31227;47.986;11.868;2022-07-23T08:04:13;44.75;35.66;55.87;;
45478;Laerm;31227;47.986;11.868;2022-07-23T08:06:38;46.00;37.12;63.21;;
45478;Laerm;31227;47.986;11.868;2022-07-23T08:09:03;45.38;37.88;54.47;;
45478;Laerm;31227;47.986;11.868;2022-07-23T08:11:29;45.52;36.20;57.48;;
45478;Laerm;31227;47.986;11.868;2022-07-23T08:13:55;45.83;36.69;55.83;;
45478;Laerm;31227;47.986;11.868;2022-07-23T08:16:21;45.86;39.34;53.41;;
45478;Laerm;31227;47.986;11.868;2022-07-23T08:18:46;45.56;35.94;56.30;;
45478;Laerm;31227;47.986;11.868;2022-07-23T08:21:11;46.58;38.81;58.57;;
45478;Laerm;31227;47.986;11.868;2022-07-23T08:23:37;45.61;35.94;57.88;;
45478;Laerm;31227;47.986;11.868;2022-07-23T08:26:02;45.99;38.32;61.76;;
45478;Laerm;31227;47.986;11.868;2022-07-23T08:28:27;45.39;37.32;62.20;;
45478;Laerm;31227;47.986;11.868;2022-07-23T08:30:52;47.67;38.05;59.76;;
45478;Laerm;31227;47.986;11.868;2022-07-23T08:33:18;46.75;37.88;56.23;;
45478;Laerm;31227;47.986;11.868;2022-07-23T08:35:44;44.59;37.12;59.65;;
45478;Laerm;31227;47.986;11.868;2022-07-23T08:38:11;45.12;36.91;53.53;;
45478;Laerm;31227;47.986;11.868;2022-07-23T08:40:38;46.27;36.45;61.46;;
45478;Laerm;31227;47.986;11.868;2022-07-23T08:43:10;45.49;36.69;57.74;;
45478;Laerm;31227;47.986;11.868;2022-07-23T08:45:39;46.13;38.05;57.59;;
45478;Laerm;31227;47.986;11.868;2022-07-23T08:48:10;45.78;36.98;53.71;;
45478;Laerm;31227;47.986;11.868;2022-07-23T08:50:36;46.38;36.45;59.39;;
45478;Laerm;31227;47.986;11.868;2022-07-23T08:53:02;46.03;35.36;56.77;;
45478;Laerm;31227;47.986;11.868;2022-07-23T08:55:30;45.81;39.21;55.43;;
45478;Laerm;31227;47.986;11.868;2022-07-23T08:57:55;46.35;37.32;54.31;;
45478;Laerm;31227;47.986;11.868;2022-07-23T09:00:21;46.30;38.21;58.44;;
45478;Laerm;31227;47.986;11.868;2022-07-23T09:02:46;45.85;35.86;53.28;;
45478;Laerm;31227;47.986;11.868;2022-07-23T09:05:13;45.06;36.20;52.33;;
45478;Laerm;31227;47.986;11.868;2022-07-23T09:10:22;46.18;35.36;57.16;;
45478;Laerm;31227;47.986;11.868;2022-07-23T09:12:48;45.38;37.32;56.15;;
45478;Laerm;31227;47.986;11.868;2022-07-23T09:15:13;48.36;36.45;64.54;;
45478;Laerm;31227;47.986;11.868;2022-07-23T09:17:39;45.71;36.20;52.74;;
45478;Laerm;31227;47.986;11.868;2022-07-23T09:20:11;45.03;37.32;54.84;;
45478;Laerm;31227;47.986;11.868;2022-07-23T09:22:37;46.79;39.21;61.92;;
45478;Laerm;31227;47.986;11.868;2022-07-23T09:25:03;45.79;38.52;53.46;;
45478;Laerm;31227;47.986;11.868;2022-07-23T09:30:13;46.10;36.91;58.80;;
45478;Laerm;31227;47.986;11.868;2022-07-23T09:32:41;45.93;35.86;59.42;;
45478;Laerm;31227;47.986;11.868;2022-07-23T09:35:06;45.58;39.08;52.38;;
45478;Laerm;31227;47.986;11.868;2022-07-23T09:37:32;46.33;37.32;57.12;;
45478;Laerm;31227;47.986;11.868;2022-07-23T09:40:05;46.43;38.37;54.17;;
45478;Laerm;31227;47.986;11.868;2022-07-23T09:42:30;45.00;37.70;52.82;;
45478;Laerm;31227;47.986;11.868;2022-07-23T09:44:56;45.59;35.94;55.84;;
45478;Laerm;31227;47.986;11.868;2022-07-23T09:47:22;47.43;39.21;63.93;;
45478;Laerm;31227;47.986;11.868;2022-07-23T09:49:58;45.25;37.70;55.89;;
45478;Laerm;31227;47.986;11.868;2022-07-23T09:52:28;47.36;36.69;62.61;;
45478;Laerm;31227;47.986;11.868;2022-07-23T09:54:57;45.51;37.70;58.30;;
45478;Laerm;31227;47.986;11.868;2022-07-23T09:57:24;46.62;39.34;54.00;;
45478;Laerm;31227;47.986;11.868;2022-07-23T09:59:49;47.71;37.70;56.43;;
45478;Laerm;31227;47.986;11.868;2022-07-23T10:02:15;46.23;35.94;62.56;;
45478;Laerm;31227;47.986;11.868;2022-07-23T10:04:41;46.62;37.87;54.66;;
45478;Laerm;31227;47.986;11.868;2022-07-23T10:07:07;45.80;38.05;54.23;;
45478;Laerm;31227;47.986;11.868;2022-07-23T10:09:34;45.48;35.94;53.54;;
45478;Laerm;31227;47.986;11.868;2022-07-23T10:12:02;44.33;36.45;52.76;;
45478;Laerm;31227;47.986;11.868;2022-07-23T10:14:41;48.63;38.05;64.57;;
45478;Laerm;31227;47.986;11.868;2022-07-23T10:17:06;47.52;37.12;63.70;;
45478;Laerm;31227;47.986;11.868;2022-07-23T10:19:32;46.08;35.94;55.90;;
45478;Laerm;31227;47.986;11.868;2022-07-23T10:22:04;45.58;36.45;53.74;;
45478;Laerm;31227;47.986;11.868;2022-07-23T10:32:08;44.01;35.36;53.28;;
45478;Laerm;31227;47.986;11.868;2022-07-23T10:37:16;45.77;37.88;53.96;;
45478;Laerm;31227;47.986;11.868;2022-07-23T10:42:35;45.58;37.52;63.82;;
45478;Laerm;31227;47.986;11.868;2022-07-23T10:45:01;45.49;36.69;55.75;;
45478;Laerm;31227;47.986;11.868;2022-07-23T10:47:46;45.15;37.12;59.60;;
45478;Laerm;31227;47.986;11.868;2022-07-23T10:50:18;46.81;37.52;57.82;;
45478;Laerm;31227;47.986;11.868;2022-07-23T10:57:53;45.72;36.91;57.73;;
45478;Laerm;31227;47.986;11.868;2022-07-23T11:00:28;45.11;35.94;56.03;;
45478;Laerm;31227;47.986;11.868;2022-07-23T11:02:55;45.08;37.12;53.60;;
45478;Laerm;31227;47.986;11.868;2022-07-23T11:05:24;45.01;36.69;55.30;;
45478;Laerm;31227;47.986;11.868;2022-07-23T11:13:22;44.84;35.59;57.29;;
45478;Laerm;31227;47.986;11.868;2022-07-23T11:16:03;46.64;35.94;58.61;;
45478;Laerm;31227;47.986;11.868;2022-07-23T11:24:06;53.34;37.32;73.07;;
45478;Laerm;31227;47.986;11.868;2022-07-23T11:34:35;46.43;38.37;58.70;;
45478;Laerm;31227;47.986;11.868;2022-07-23T11:37:01;44.59;37.12;52.39;;
45478;Laerm;31227;47.986;11.868;2022-07-23T11:39:27;44.78;36.69;62.84;;
45478;Laerm;31227;47.986;11.868;2022-07-23T11:41:53;43.36;35.36;53.96;;
45478;Laerm;31227;47.986;11.868;2022-07-23T11:44:25;46.43;35.04;59.40;;
45478;Laerm;31227;47.986;11.868;2022-07-23T11:46:55;45.61;37.88;55.73;;
45478;Laerm;31227;47.986;11.868;2022-07-23T11:49:20;45.09;36.20;54.54;;
45478;Laerm;31227;47.986;11.868;2022-07-23T11:51:45;45.33;36.69;59.73;;
45478;Laerm;31227;47.986;11.868;2022-07-23T11:54:11;44.07;35.66;52.11;;
45478;Laerm;31227;47.986;11.868;2022-07-23T11:56:36;44.85;37.32;53.88;;
45478;Laerm;31227;47.986;11.868;2022-07-23T11:59:01;45.78;37.32;55.06;;
45478;Laerm;31227;47.986;11.868;2022-07-23T12:01:27;45.47;37.52;57.21;;
45478;Laerm;31227;47.986;11.868;2022-07-23T12:03:53;46.10;37.70;60.47;;
45478;Laerm;31227;47.986;11.868;2022-07-23T12:06:18;46.39;37.32;56.79;;
45478;Laerm;31227;47.986;11.868;2022-07-23T12:08:43;45.78;35.66;60.90;;
45478;Laerm;31227;47.986;11.868;2022-07-23T12:11:08;45.10;37.70;59.84;;
45478;Laerm;31227;47.986;11.868;2022-07-23T12:13:36;45.77;36.69;68.65;;
45478;Laerm;31227;47.986;11.868;2022-07-23T12:16:02;43.73;35.94;53.99;;
45478;Laerm;31227;47.986;11.868;2022-07-23T12:18:27;46.62;38.52;56.48;;
45478;Laerm;31227;47.986;11.868;2022-07-23T12:20:55;45.63;37.12;56.73;;
45478;Laerm;31227;47.986;11.868;2022-07-23T12:23:21;46.23;35.04;58.61;;
45478;Laerm;31227;47.986;11.868;2022-07-23T12:25:47;45.92;36.69;55.51;;
45478;Laerm;31227;47.986;11.868;2022-07-23T12:28:14;45.41;37.32;55.99;;
45478;Laerm;31227;47.986;11.868;2022-07-23T12:33:05;45.17;36.77;54.75;;
45478;Laerm;31227;47.986;11.868;2022-07-23T12:35:35;45.57;35.66;57.27;;
45478;Laerm;31227;47.986;11.868;2022-07-23T12:38:03;45.29;36.91;54.32;;
45478;Laerm;31227;47.986;11.868;2022-07-23T12:40:48;45.61;38.37;53.61;;
45478;Laerm;31227;47.986;11.868;2022-07-23T12:43:20;44.76;35.36;52.49;;
45478;Laerm;31227;47.986;11.868;2022-07-23T12:45:51;48.80;38.05;65.05;;
45478;Laerm;31227;47.986;11.868;2022-07-23T12:48:26;43.91;35.04;52.45;;
45478;Laerm;31227;47.986;11.868;2022-07-23T12:51:02;45.59;35.66;53.42;;
45478;Laerm;31227;47.986;11.868;2022-07-23T12:53:32;43.97;35.66;53.93;;
45478;Laerm;31227;47.986;11.868;2022-07-23T12:56:02;44.97;37.12;54.58;;
45478;Laerm;31227;47.986;11.868;2022-07-23T12:58:38;45.28;35.94;54.83;;
45478;Laerm;31227;47.986;11.868;2022-07-23T13:01:04;45.23;38.21;54.48;;
45478;Laerm;31227;47.986;11.868;2022-07-23T13:03:40;46.07;38.95;55.27;;
45478;Laerm;31227;47.986;11.868;2022-07-23T13:06:06;43.93;35.04;53.64;;
45478;Laerm;31227;47.986;11.868;2022-07-23T13:08:32;45.54;37.70;59.66;;
45478;Laerm;31227;47.986;11.868;2022-07-23T13:10:58;44.82;36.69;53.75;;
45478;Laerm;31227;47.986;11.868;2022-07-23T13:13:24;48.53;38.81;64.17;;
45478;Laerm;31227;47.986;11.868;2022-07-23T13:15:50;45.31;37.52;54.58;;
45478;Laerm;31227;47.986;11.868;2022-07-23T13:18:16;44.31;35.94;54.19;;
45478;Laerm;31227;47.986;11.868;2022-07-23T13:20:42;47.19;38.05;60.47;;
45478;Laerm;31227;47.986;11.868;2022-07-23T13:23:07;44.83;35.94;53.44;;
45478;Laerm;31227;47.986;11.868;2022-07-23T13:25:33;43.75;35.36;55.90;;
45478;Laerm;31227;47.986;11.868;2022-07-23T13:27:58;45.13;36.91;63.20;;
45478;Laerm;31227;47.986;11.868;2022-07-23T13:30:23;46.84;35.94;67.51;;
45478;Laerm;31227;47.986;11.868;2022-07-23T13:32:48;45.20;35.66;55.93;;
45478;Laerm;31227;47.986;11.868;2022-07-23T13:35:14;45.92;37.52;55.51;;
45478;Laerm;31227;47.986;11.868;2022-07-23T13:37:39;45.65;37.12;55.31;;
45478;Laerm;31227;47.986;11.868;2022-07-23T13:40:05;46.32;36.45;60.67;;
45478;Laerm;31227;47.986;11.868;2022-07-23T13:42:30;45.06;36.91;54.21;;
45478;Laerm;31227;47.986;11.868;2022-07-23T13:44:55;44.93;36.69;57.77;;
45478;Laerm;31227;47.986;11.868;2022-07-23T13:47:21;44.37;35.66;51.70;;
45478;Laerm;31227;47.986;11.868;2022-07-23T13:49:46;48.52;36.69;61.83;;
45478;Laerm;31227;47.986;11.868;2022-07-23T13:52:11;45.73;36.91;56.44;;
45478;Laerm;31227;47.986;11.868;2022-07-23T13:54:37;44.57;35.94;56.65;;
45478;Laerm;31227;47.986;11.868;2022-07-23T13:57:02;48.60;39.21;60.34;;
45478;Laerm;31227;47.986;11.868;2022-07-23T13:59:27;47.90;37.70;61.35;;
45478;Laerm;31227;47.986;11.868;2022-07-23T14:01:53;47.14;35.66;54.62;;
45478;Laerm;31227;47.986;11.868;2022-07-23T14:04:18;48.21;35.94;62.82;;
45478;Laerm;31227;47.986;11.868;2022-07-23T14:06:44;46.15;36.69;56.17;;
45478;Laerm;31227;47.986;11.868;2022-07-23T14:09:09;48.55;39.34;62.74;;
45478;Laerm;31227;47.986;11.868;2022-07-23T14:11:34;47.21;38.95;56.54;;